Terminal Aerodrome Forecast
Issued by NWS

Home | Current Version | Previous Version | Text Only | Print | Product List | Glossary On
Versions: 1 2 3 4 5 6 7 8 9 10 11 12 13 14 15 16 17 18 19 20 21 22 23 24 25 26 27 28 29 30 31 32
000
FTUS42 KCAE 041400 AAA
TAFDNL
TAF AMD
KDNL 041458Z 0415/0512 VRB04KT 2SM BR BKN002 WS020/21040KT
     FM041600 23010KT 5SM BR BKN012
     FM041700 24014G24KT P6SM SCT025 BKN250
     FM042300 20007KT P6SM OVC100
     FM050500 23007KT 4SM BR OVC003=

USA.gov is the U.S. government's official web portal to all federal, state and local government web resources and services.